sensor_id;sensor_type;location;lat;lon;timestamp;pressure;altitude;pressure_sealevel;temperature
12918;BMP180;6526;54.312;13.092;2023-01-24T00:00:44;104409.00;;;5.80
12918;BMP180;6526;54.312;13.092;2023-01-24T00:03:10;104420.00;;;5.80
12918;BMP180;6526;54.312;13.092;2023-01-24T00:05:40;104405.00;;;5.70
12918;BMP180;6526;54.312;13.092;2023-01-24T00:08:06;104418.00;;;5.70
12918;BMP180;6526;54.312;13.092;2023-01-24T00:10:32;104428.00;;;5.70
12918;BMP180;6526;54.312;13.092;2023-01-24T00:12:58;104430.00;;;5.70
12918;BMP180;6526;54.312;13.092;2023-01-24T00:15:24;104420.00;;;5.70
12918;BMP180;6526;54.312;13.092;2023-01-24T00:17:50;104426.00;;;5.50
12918;BMP180;6526;54.312;13.092;2023-01-24T00:20:16;104419.00;;;5.30
12918;BMP180;6526;54.312;13.092;2023-01-24T00:22:42;104419.00;;;5.10
12918;BMP180;6526;54.312;13.092;2023-01-24T00:25:09;104430.00;;;5.20
12918;BMP180;6526;54.312;13.092;2023-01-24T00:27:35;104429.00;;;5.40
12918;BMP180;6526;54.312;13.092;2023-01-24T00:30:05;104427.00;;;5.60
12918;BMP180;6526;54.312;13.092;2023-01-24T00:32:32;104434.00;;;5.60
12918;BMP180;6526;54.312;13.092;2023-01-24T00:34:58;104434.00;;;5.70
12918;BMP180;6526;54.312;13.092;2023-01-24T00:37:24;104417.00;;;5.70
12918;BMP180;6526;54.312;13.092;2023-01-24T00:39:50;104419.00;;;5.70
12918;BMP180;6526;54.312;13.092;2023-01-24T00:42:16;104412.00;;;5.70
12918;BMP180;6526;54.312;13.092;2023-01-24T00:44:43;104410.00;;;5.80
12918;BMP180;6526;54.312;13.092;2023-01-24T00:47:08;104406.00;;;5.50
12918;BMP180;6526;54.312;13.092;2023-01-24T00:49:35;104404.00;;;5.40
12918;BMP180;6526;54.312;13.092;2023-01-24T00:52:01;104424.00;;;5.30
12918;BMP180;6526;54.312;13.092;2023-01-24T00:54:27;104414.00;;;5.10
12918;BMP180;6526;54.312;13.092;2023-01-24T00:56:53;104407.00;;;5.00
12918;BMP180;6526;54.312;13.092;2023-01-24T00:59:19;104421.00;;;5.10
12918;BMP180;6526;54.312;13.092;2023-01-24T01:01:45;104419.00;;;5.20
12918;BMP180;6526;54.312;13.092;2023-01-24T01:04:11;104409.00;;;5.30
12918;BMP180;6526;54.312;13.092;2023-01-24T01:06:37;104413.00;;;5.40
12918;BMP180;6526;54.312;13.092;2023-01-24T01:09:03;104412.00;;;5.50
12918;BMP180;6526;54.312;13.092;2023-01-24T01:11:30;104408.00;;;5.50
12918;BMP180;6526;54.312;13.092;2023-01-24T01:13:57;104416.00;;;5.40
12918;BMP180;6526;54.312;13.092;2023-01-24T01:16:23;104409.00;;;5.40
12918;BMP180;6526;54.312;13.092;2023-01-24T01:18:53;104412.00;;;5.50
12918;BMP180;6526;54.312;13.092;2023-01-24T01:21:21;104404.00;;;5.50
12918;BMP180;6526;54.312;13.092;2023-01-24T01:23:48;104408.00;;;5.50
12918;BMP180;6526;54.312;13.092;2023-01-24T01:26:17;104401.00;;;5.50
12918;BMP180;6526;54.312;13.092;2023-01-24T01:28:43;104392.00;;;5.50
12918;BMP180;6526;54.312;13.092;2023-01-24T01:31:09;104396.00;;;5.50
12918;BMP180;6526;54.312;13.092;2023-01-24T01:33:35;104391.00;;;5.50
12918;BMP180;6526;54.312;13.092;2023-01-24T01:36:01;104399.00;;;5.60
12918;BMP180;6526;54.312;13.092;2023-01-24T01:38:28;104391.00;;;5.60
12918;BMP180;6526;54.312;13.092;2023-01-24T01:40:57;104398.00;;;5.70
12918;BMP180;6526;54.312;13.092;2023-01-24T01:43:28;104396.00;;;5.50
12918;BMP180;6526;54.312;13.092;2023-01-24T01:46:18;104389.00;;;5.40
12918;BMP180;6526;54.312;13.092;2023-01-24T01:48:48;104391.00;;;5.30
12918;BMP180;6526;54.312;13.092;2023-01-24T01:51:30;104376.00;;;5.10
12918;BMP180;6526;54.312;13.092;2023-01-24T01:54:01;104401.00;;;5.20
12918;BMP180;6526;54.312;13.092;2023-01-24T01:56:37;104400.00;;;5.20
12918;BMP180;6526;54.312;13.092;2023-01-24T01:59:09;104400.00;;;5.50
12918;BMP180;6526;54.312;13.092;2023-01-24T02:01:37;104408.00;;;5.50
12918;BMP180;6526;54.312;13.092;2023-01-24T02:04:16;104387.00;;;5.60
12918;BMP180;6526;54.312;13.092;2023-01-24T02:07:10;104387.00;;;5.60
12918;BMP180;6526;54.312;13.092;2023-01-24T02:09:45;104389.00;;;5.70
12918;BMP180;6526;54.312;13.092;2023-01-24T02:12:48;104389.00;;;5.50
12918;BMP180;6526;54.312;13.092;2023-01-24T02:15:18;104391.00;;;5.50
12918;BMP180;6526;54.312;13.092;2023-01-24T02:18:04;104395.00;;;5.50
12918;BMP180;6526;54.312;13.092;2023-01-24T02:20:37;104383.00;;;5.30
12918;BMP180;6526;54.312;13.092;2023-01-24T02:26:11;104386.00;;;5.10
12918;BMP180;6526;54.312;13.092;2023-01-24T02:28:40;104402.00;;;5.00
12918;BMP180;6526;54.312;13.092;2023-01-24T02:31:08;104389.00;;;4.80
12918;BMP180;6526;54.312;13.092;2023-01-24T02:33:34;104407.00;;;4.80
12918;BMP180;6526;54.312;13.092;2023-01-24T02:39:08;104388.00;;;5.10
12918;BMP180;6526;54.312;13.092;2023-01-24T02:41:45;104383.00;;;5.20
12918;BMP180;6526;54.312;13.092;2023-01-24T02:47:03;104393.00;;;5.30
12918;BMP180;6526;54.312;13.092;2023-01-24T02:49:29;104386.00;;;5.30
12918;BMP180;6526;54.312;13.092;2023-01-24T02:51:55;104388.00;;;5.50
12918;BMP180;6526;54.312;13.092;2023-01-24T02:54:40;104383.00;;;5.40
12918;BMP180;6526;54.312;13.092;2023-01-24T02:57:06;104395.00;;;5.50
12918;BMP180;6526;54.312;13.092;2023-01-24T02:59:51;104391.00;;;5.20
12918;BMP180;6526;54.312;13.092;2023-01-24T03:02:17;104383.00;;;5.10
12918;BMP180;6526;54.312;13.092;2023-01-24T03:04:43;104352.00;;;5.20
12918;BMP180;6526;54.312;13.092;2023-01-24T03:07:09;104384.00;;;5.30
12918;BMP180;6526;54.312;13.092;2023-01-24T03:09:35;104380.00;;;5.30
12918;BMP180;6526;54.312;13.092;2023-01-24T03:12:05;104374.00;;;5.30
12918;BMP180;6526;54.312;13.092;2023-01-24T03:14:50;104382.00;;;5.30
12918;BMP180;6526;54.312;13.092;2023-01-24T03:17:35;104380.00;;;5.10
12918;BMP180;6526;54.312;13.092;2023-01-24T03:20:20;104381.00;;;4.80
12918;BMP180;6526;54.312;13.092;2023-01-24T03:23:05;104375.00;;;5.10
12918;BMP180;6526;54.312;13.092;2023-01-24T03:25:53;104382.00;;;5.10
12918;BMP180;6526;54.312;13.092;2023-01-24T03:28:39;104381.00;;;5.10
12918;BMP180;6526;54.312;13.092;2023-01-24T03:31:24;104387.00;;;5.30
12918;BMP180;6526;54.312;13.092;2023-01-24T03:34:09;104388.00;;;5.00
12918;BMP180;6526;54.312;13.092;2023-01-24T03:36:54;104395.00;;;5.10
12918;BMP180;6526;54.312;13.092;2023-01-24T03:39:20;104394.00;;;5.30
12918;BMP180;6526;54.312;13.092;2023-01-24T03:42:04;104391.00;;;5.40
12918;BMP180;6526;54.312;13.092;2023-01-24T03:44:30;104398.00;;;5.40
12918;BMP180;6526;54.312;13.092;2023-01-24T03:46:56;104385.00;;;5.50
12918;BMP180;6526;54.312;13.092;2023-01-24T03:49:22;104399.00;;;5.60
12918;BMP180;6526;54.312;13.092;2023-01-24T03:52:07;104397.00;;;5.60
12918;BMP180;6526;54.312;13.092;2023-01-24T03:54:53;104402.00;;;5.60
12918;BMP180;6526;54.312;13.092;2023-01-24T03:57:19;104398.00;;;5.50
12918;BMP180;6526;54.312;13.092;2023-01-24T03:59:45;104409.00;;;5.30
12918;BMP180;6526;54.312;13.092;2023-01-24T04:02:11;104404.00;;;5.20
12918;BMP180;6526;54.312;13.092;2023-01-24T04:04:37;104405.00;;;5.20
12918;BMP180;6526;54.312;13.092;2023-01-24T04:07:21;104392.00;;;5.30
12918;BMP180;6526;54.312;13.092;2023-01-24T04:09:47;104405.00;;;5.40
12918;BMP180;6526;54.312;13.092;2023-01-24T04:12:13;104401.00;;;5.40
12918;BMP180;6526;54.312;13.092;2023-01-24T04:14:39;104396.00;;;5.40
12918;BMP180;6526;54.312;13.092;2023-01-24T04:17:05;104405.00;;;5.50
12918;BMP180;6526;54.312;13.092;2023-01-24T04:19:31;104404.00;;;5.60
12918;BMP180;6526;54.312;13.092;2023-01-24T04:21:57;104409.00;;;5.40
12918;BMP180;6526;54.312;13.092;2023-01-24T04:24:24;104411.00;;;5.30
12918;BMP180;6526;54.312;13.092;2023-01-24T04:26:50;104404.00;;;5.10
12918;BMP180;6526;54.312;13.092;2023-01-24T04:29:16;104412.00;;;5.20
12918;BMP180;6526;54.312;13.092;2023-01-24T04:31:42;104406.00;;;5.30
12918;BMP180;6526;54.312;13.092;2023-01-24T04:34:08;104413.00;;;5.30
12918;BMP180;6526;54.312;13.092;2023-01-24T04:36:34;104422.00;;;5.40
12918;BMP180;6526;54.312;13.092;2023-01-24T04:39:00;104425.00;;;5.40
12918;BMP180;6526;54.312;13.092;2023-01-24T04:41:26;104419.00;;;5.40
12918;BMP180;6526;54.312;13.092;2023-01-24T04:43:52;104419.00;;;5.50
12918;BMP180;6526;54.312;13.092;2023-01-24T04:46:18;104424.00;;;5.50
12918;BMP180;6526;54.312;13.092;2023-01-24T04:48:44;104410.00;;;5.50
12918;BMP180;6526;54.312;13.092;2023-01-24T04:51:10;104408.00;;;5.50
12918;BMP180;6526;54.312;13.092;2023-01-24T04:53:40;104410.00;;;5.50
12918;BMP180;6526;54.312;13.092;2023-01-24T04:56:06;104404.00;;;5.50
12918;BMP180;6526;54.312;13.092;2023-01-24T04:58:33;104415.00;;;5.40
12918;BMP180;6526;54.312;13.092;2023-01-24T05:01:00;104413.00;;;5.50
12918;BMP180;6526;54.312;13.092;2023-01-24T05:03:26;104406.00;;;5.50
12918;BMP180;6526;54.312;13.092;2023-01-24T05:05:53;104399.00;;;5.60
12918;BMP180;6526;54.312;13.092;2023-01-24T05:08:20;104400.00;;;5.60
12918;BMP180;6526;54.312;13.092;2023-01-24T05:10:47;104405.00;;;5.50
12918;BMP180;6526;54.312;13.092;2023-01-24T05:13:13;104409.00;;;5.60
12918;BMP180;6526;54.312;13.092;2023-01-24T05:15:45;104408.00;;;5.50
12918;BMP180;6526;54.312;13.092;2023-01-24T05:18:11;104388.00;;;5.40
12918;BMP180;6526;54.312;13.092;2023-01-24T05:20:37;104390.00;;;5.50
12918;BMP180;6526;54.312;13.092;2023-01-24T05:23:03;104400.00;;;5.50
12918;BMP180;6526;54.312;13.092;2023-01-24T05:25:29;104390.00;;;5.50
12918;BMP180;6526;54.312;13.092;2023-01-24T05:27:55;104402.00;;;5.40
12918;BMP180;6526;54.312;13.092;2023-01-24T05:30:21;104399.00;;;5.40
12918;BMP180;6526;54.312;13.092;2023-01-24T05:32:47;104396.00;;;5.20
12918;BMP180;6526;54.312;13.092;2023-01-24T05:35:13;104399.00;;;5.30
12918;BMP180;6526;54.312;13.092;2023-01-24T05:37:40;104396.00;;;5.30
12918;BMP180;6526;54.312;13.092;2023-01-24T05:40:06;104401.00;;;5.30
12918;BMP180;6526;54.312;13.092;2023-01-24T05:42:33;104403.00;;;5.20
12918;BMP180;6526;54.312;13.092;2023-01-24T05:44:59;104408.00;;;5.30
12918;BMP180;6526;54.312;13.092;2023-01-24T05:47:25;104406.00;;;5.30
12918;BMP180;6526;54.312;13.092;2023-01-24T05:49:51;104411.00;;;5.20
12918;BMP180;6526;54.312;13.092;2023-01-24T05:52:17;104395.00;;;5.30
12918;BMP180;6526;54.312;13.092;2023-01-24T05:54:50;104395.00;;;5.30
12918;BMP180;6526;54.312;13.092;2023-01-24T05:57:17;104391.00;;;5.20
12918;BMP180;6526;54.312;13.092;2023-01-24T05:59:43;104395.00;;;5.10
12918;BMP180;6526;54.312;13.092;2023-01-24T06:02:09;104406.00;;;5.00
12918;BMP180;6526;54.312;13.092;2023-01-24T06:04:35;104401.00;;;5.00
12918;BMP180;6526;54.312;13.092;2023-01-24T06:07:01;104407.00;;;5.10
12918;BMP180;6526;54.312;13.092;2023-01-24T06:09:27;104409.00;;;5.20
12918;BMP180;6526;54.312;13.092;2023-01-24T06:11:53;104415.00;;;5.20
12918;BMP180;6526;54.312;13.092;2023-01-24T06:14:20;104425.00;;;5.20
12918;BMP180;6526;54.312;13.092;2023-01-24T06:16:46;104415.00;;;5.30
12918;BMP180;6526;54.312;13.092;2023-01-24T06:19:14;104416.00;;;5.30
12918;BMP180;6526;54.312;13.092;2023-01-24T06:21:48;104429.00;;;5.20
12918;BMP180;6526;54.312;13.092;2023-01-24T06:24:23;104418.00;;;5.20
12918;BMP180;6526;54.312;13.092;2023-01-24T06:26:50;104416.00;;;5.30
12918;BMP180;6526;54.312;13.092;2023-01-24T06:29:18;104430.00;;;5.30
12918;BMP180;6526;54.312;13.092;2023-01-24T06:40:00;104429.00;;;5.30
12918;BMP180;6526;54.312;13.092;2023-01-24T06:42:26;104427.00;;;5.20
12918;BMP180;6526;54.312;13.092;2023-01-24T06:44:52;104435.00;;;5.20
12918;BMP180;6526;54.312;13.092;2023-01-24T06:47:18;104436.00;;;5.10
12918;BMP180;6526;54.312;13.092;2023-01-24T06:49:45;104426.00;;;5.00
12918;BMP180;6526;54.312;13.092;2023-01-24T06:52:12;104436.00;;;4.80
12918;BMP180;6526;54.312;13.092;2023-01-24T06:54:39;104438.00;;;4.80
12918;BMP180;6526;54.312;13.092;2023-01-24T06:57:05;104440.00;;;4.70
12918;BMP180;6526;54.312;13.092;2023-01-24T06:59:31;104436.00;;;4.80
12918;BMP180;6526;54.312;13.092;2023-01-24T07:01:57;104430.00;;;4.90
12918;BMP180;6526;54.312;13.092;2023-01-24T07:04:23;104414.00;;;5.00
12918;BMP180;6526;54.312;13.092;2023-01-24T07:06:49;104418.00;;;5.10
12918;BMP180;6526;54.312;13.092;2023-01-24T07:09:19;104434.00;;;5.10
12918;BMP180;6526;54.312;13.092;2023-01-24T07:11:45;104435.00;;;5.20
12918;BMP180;6526;54.312;13.092;2023-01-24T07:14:15;104444.00;;;5.20
12918;BMP180;6526;54.312;13.092;2023-01-24T07:16:41;104445.00;;;5.10
12918;BMP180;6526;54.312;13.092;2023-01-24T07:19:14;104443.00;;;5.10
12918;BMP180;6526;54.312;13.092;2023-01-24T07:21:41;104452.00;;;5.00
12918;BMP180;6526;54.312;13.092;2023-01-24T07:24:16;104457.00;;;5.10
12918;BMP180;6526;54.312;13.092;2023-01-24T07:26:44;104451.00;;;5.30
12918;BMP180;6526;54.312;13.092;2023-01-24T07:29:10;104453.00;;;5.40
12918;BMP180;6526;54.312;13.092;2023-01-24T07:31:37;104460.00;;;5.30
12918;BMP180;6526;54.312;13.092;2023-01-24T07:34:04;104459.00;;;5.20
12918;BMP180;6526;54.312;13.092;2023-01-24T07:36:30;104464.00;;;5.20
12918;BMP180;6526;54.312;13.092;2023-01-24T07:38:57;104461.00;;;5.00
12918;BMP180;6526;54.312;13.092;2023-01-24T07:41:24;104458.00;;;5.00
12918;BMP180;6526;54.312;13.092;2023-01-24T07:43:50;104468.00;;;5.10
12918;BMP180;6526;54.312;13.092;2023-01-24T07:46:16;104462.00;;;5.00
12918;BMP180;6526;54.312;13.092;2023-01-24T07:48:42;104467.00;;;4.90
12918;BMP180;6526;54.312;13.092;2023-01-24T07:51:08;104473.00;;;4.80
12918;BMP180;6526;54.312;13.092;2023-01-24T07:53:35;104481.00;;;4.90
12918;BMP180;6526;54.312;13.092;2023-01-24T07:56:01;104486.00;;;4.90
12918;BMP180;6526;54.312;13.092;2023-01-24T07:58:28;104487.00;;;5.00
12918;BMP180;6526;54.312;13.092;2023-01-24T08:00:54;104487.00;;;5.10
12918;BMP180;6526;54.312;13.092;2023-01-24T08:03:20;104499.00;;;5.20
12918;BMP180;6526;54.312;13.092;2023-01-24T08:05:46;104497.00;;;5.20
12918;BMP180;6526;54.312;13.092;2023-01-24T08:08:12;104501.00;;;5.30
12918;BMP180;6526;54.312;13.092;2023-01-24T08:10:38;104501.00;;;5.20
12918;BMP180;6526;54.312;13.092;2023-01-24T08:13:04;104503.00;;;5.10
12918;BMP180;6526;54.312;13.092;2023-01-24T08:15:30;104504.00;;;5.00
12918;BMP180;6526;54.312;13.092;2023-01-24T08:17:56;104500.00;;;4.80
12918;BMP180;6526;54.312;13.092;2023-01-24T08:20:22;104502.00;;;4.90
12918;BMP180;6526;54.312;13.092;2023-01-24T08:22:54;104499.00;;;5.10
12918;BMP180;6526;54.312;13.092;2023-01-24T08:25:21;104498.00;;;5.00
12918;BMP180;6526;54.312;13.092;2023-01-24T08:27:47;104499.00;;;5.10
12918;BMP180;6526;54.312;13.092;2023-01-24T08:30:13;104496.00;;;5.20
12918;BMP180;6526;54.312;13.092;2023-01-24T08:32:39;104497.00;;;5.30
12918;BMP180;6526;54.312;13.092;2023-01-24T08:35:06;104501.00;;;5.30
12918;BMP180;6526;54.312;13.092;2023-01-24T08:37:32;104499.00;;;5.30
12918;BMP180;6526;54.312;13.092;2023-01-24T08:39:58;104510.00;;;5.30
12918;BMP180;6526;54.312;13.092;2023-01-24T08:42:24;104495.00;;;5.30
12918;BMP180;6526;54.312;13.092;2023-01-24T08:44:50;104511.00;;;5.30
12918;BMP180;6526;54.312;13.092;2023-01-24T08:47:17;104508.00;;;5.20
12918;BMP180;6526;54.312;13.092;2023-01-24T08:49:43;104504.00;;;5.10
12918;BMP180;6526;54.312;13.092;2023-01-24T08:52:09;104508.00;;;5.10
12918;BMP180;6526;54.312;13.092;2023-01-24T08:54:36;104500.00;;;5.10
12918;BMP180;6526;54.312;13.092;2023-01-24T08:57:03;104508.00;;;5.20
12918;BMP180;6526;54.312;13.092;2023-01-24T08:59:29;104513.00;;;5.30
12918;BMP180;6526;54.312;13.092;2023-01-24T09:01:56;104512.00;;;5.30
12918;BMP180;6526;54.312;13.092;2023-01-24T09:04:22;104510.00;;;5.20
12918;BMP180;6526;54.312;13.092;2023-01-24T09:06:50;104507.00;;;5.10
12918;BMP180;6526;54.312;13.092;2023-01-24T09:09:16;104497.00;;;5.00
12918;BMP180;6526;54.312;13.092;2023-01-24T09:11:42;104502.00;;;5.10
12918;BMP180;6526;54.312;13.092;2023-01-24T09:14:08;104515.00;;;5.20
12918;BMP180;6526;54.312;13.092;2023-01-24T09:16:34;104504.00;;;5.30
12918;BMP180;6526;54.312;13.092;2023-01-24T09:19:00;104511.00;;;5.20
12918;BMP180;6526;54.312;13.092;2023-01-24T09:21:26;104503.00;;;5.20
12918;BMP180;6526;54.312;13.092;2023-01-24T09:23:55;104512.00;;;5.10
12918;BMP180;6526;54.312;13.092;2023-01-24T09:26:22;104513.00;;;4.90
12918;BMP180;6526;54.312;13.092;2023-01-24T09:28:48;104510.00;;;4.90
12918;BMP180;6526;54.312;13.092;2023-01-24T09:31:14;104516.00;;;5.00
12918;BMP180;6526;54.312;13.092;2023-01-24T09:33:40;104516.00;;;5.20
12918;BMP180;6526;54.312;13.092;2023-01-24T09:36:06;104515.00;;;5.10
12918;BMP180;6526;54.312;13.092;2023-01-24T09:38:33;104522.00;;;5.20
12918;BMP180;6526;54.312;13.092;2023-01-24T09:41:57;104522.00;;;5.20
12918;BMP180;6526;54.312;13.092;2023-01-24T09:44:10;104520.00;;;5.10
12918;BMP180;6526;54.312;13.092;2023-01-24T09:46:44;104526.00;;;5.00
12918;BMP180;6526;54.312;13.092;2023-01-24T09:49:37;104541.00;;;5.10
12918;BMP180;6526;54.312;13.092;2023-01-24T09:52:06;104538.00;;;5.10
12918;BMP180;6526;54.312;13.092;2023-01-24T09:54:43;104534.00;;;5.10
12918;BMP180;6526;54.312;13.092;2023-01-24T09:57:36;104540.00;;;5.20
12918;BMP180;6526;54.312;13.092;2023-01-24T10:02:49;104518.00;;;5.10
12918;BMP180;6526;54.312;13.092;2023-01-24T10:05:16;104509.00;;;5.10
12918;BMP180;6526;54.312;13.092;2023-01-24T10:08:02;104514.00;;;5.10
12918;BMP180;6526;54.312;13.092;2023-01-24T10:16:15;104503.00;;;5.20
12918;BMP180;6526;54.312;13.092;2023-01-24T10:21:57;104489.00;;;5.10
12918;BMP180;6526;54.312;13.092;2023-01-24T10:24:31;104492.00;;;5.30
12918;BMP180;6526;54.312;13.092;2023-01-24T10:27:00;104482.00;;;5.30
12918;BMP180;6526;54.312;13.092;2023-01-24T10:29:30;104490.00;;;5.30
12918;BMP180;6526;54.312;13.092;2023-01-24T10:32:11;104488.00;;;5.30
12918;BMP180;6526;54.312;13.092;2023-01-24T10:34:44;104485.00;;;5.10
12918;BMP180;6526;54.312;13.092;2023-01-24T10:39:44;104485.00;;;5.00
12918;BMP180;6526;54.312;13.092;2023-01-24T10:42:30;104477.00;;;4.90
12918;BMP180;6526;54.312;13.092;2023-01-24T10:45:01;104492.00;;;4.90
12918;BMP180;6526;54.312;13.092;2023-01-24T10:47:53;104491.00;;;5.00
12918;BMP180;6526;54.312;13.092;2023-01-24T10:50:22;104494.00;;;5.20
12918;BMP180;6526;54.312;13.092;2023-01-24T10:52:49;104494.00;;;5.30
12918;BMP180;6526;54.312;13.092;2023-01-24T10:55:33;104511.00;;;5.50
12918;BMP180;6526;54.312;13.092;2023-01-24T10:58:42;104510.00;;;5.40
12918;BMP180;6526;54.312;13.092;2023-01-24T11:01:19;104507.00;;;5.30
12918;BMP180;6526;54.312;13.092;2023-01-24T11:03:48;104502.00;;;5.30
12918;BMP180;6526;54.312;13.092;2023-01-24T11:06:33;104491.00;;;5.20
12918;BMP180;6526;54.312;13.092;2023-01-24T11:09:17;104492.00;;;5.20
12918;BMP180;6526;54.312;13.092;2023-01-24T11:11:49;104476.00;;;5.30
12918;BMP180;6526;54.312;13.092;2023-01-24T11:14:19;104473.00;;;5.30
12918;BMP180;6526;54.312;13.092;2023-01-24T11:16:48;104467.00;;;5.50
12918;BMP180;6526;54.312;13.092;2023-01-24T11:19:22;104480.00;;;5.60
12918;BMP180;6526;54.312;13.092;2023-01-24T11:21:53;104481.00;;;5.70
12918;BMP180;6526;54.312;13.092;2023-01-24T11:24:19;104474.00;;;5.20
12918;BMP180;6526;54.312;13.092;2023-01-24T11:29:28;104462.00;;;4.80
12918;BMP180;6526;54.312;13.092;2023-01-24T11:34:50;104444.00;;;5.00
12918;BMP180;6526;54.312;13.092;2023-01-24T11:37:40;104452.00;;;5.00
12918;BMP180;6526;54.312;13.092;2023-01-24T11:45:35;104427.00;;;5.00
12918;BMP180;6526;54.312;13.092;2023-01-24T11:48:06;104424.00;;;5.00
12918;BMP180;6526;54.312;13.092;2023-01-24T11:50:42;104408.00;;;5.10
12918;BMP180;6526;54.312;13.092;2023-01-24T11:56:50;104423.00;;;4.90
12918;BMP180;6526;54.312;13.092;2023-01-24T12:21:08;104424.00;;;5.00
12918;BMP180;6526;54.312;13.092;2023-01-24T12:23:41;104428.00;;;5.00
12918;BMP180;6526;54.312;13.092;2023-01-24T12:26:29;104420.00;;;5.20
12918;BMP180;6526;54.312;13.092;2023-01-24T12:29:02;104425.00;;;5.00
12918;BMP180;6526;54.312;13.092;2023-01-24T12:31:45;104424.00;;;4.90
12918;BMP180;6526;54.312;13.092;2023-01-24T12:34:42;104416.00;;;4.80
12918;BMP180;6526;54.312;13.092;2023-01-24T12:37:36;104425.00;;;4.70
12918;BMP180;6526;54.312;13.092;2023-01-24T12:45:30;104412.00;;;4.70
12918;BMP180;6526;54.312;13.092;2023-01-24T12:50:53;104407.00;;;5.00
12918;BMP180;6526;54.312;13.092;2023-01-24T12:56:32;104389.00;;;4.90
12918;BMP180;6526;54.312;13.092;2023-01-24T12:59:01;104357.00;;;4.80
12918;BMP180;6526;54.312;13.092;2023-01-24T13:04:48;104381.00;;;4.60
12918;BMP180;6526;54.312;13.092;2023-01-24T13:07:39;104375.00;;;4.30
12918;BMP180;6526;54.312;13.092;2023-01-24T13:13:07;104357.00;;;4.00
12918;BMP180;6526;54.312;13.092;2023-01-24T13:15:54;104356.00;;;4.30
12918;BMP180;6526;54.312;13.092;2023-01-24T13:21:13;104367.00;;;4.70
12918;BMP180;6526;54.312;13.092;2023-01-24T13:23:46;104365.00;;;4.70
12918;BMP180;6526;54.312;13.092;2023-01-24T13:29:41;104359.00;;;4.80
12918;BMP180;6526;54.312;13.092;2023-01-24T13:32:15;104356.00;;;4.60
12918;BMP180;6526;54.312;13.092;2023-01-24T13:34:54;104348.00;;;4.80
12918;BMP180;6526;54.312;13.092;2023-01-24T13:37:26;104349.00;;;4.80
12918;BMP180;6526;54.312;13.092;2023-01-24T13:40:02;104349.00;;;4.90
12918;BMP180;6526;54.312;13.092;2023-01-24T13:42:34;104353.00;;;4.80
12918;BMP180;6526;54.312;13.092;2023-01-24T13:45:40;104349.00;;;4.80
12918;BMP180;6526;54.312;13.092;2023-01-24T13:51:30;104356.00;;;4.70
12918;BMP180;6526;54.312;13.092;2023-01-24T13:56:24;104364.00;;;4.70
12918;BMP180;6526;54.312;13.092;2023-01-24T13:58:52;104355.00;;;4.70
12918;BMP180;6526;54.312;13.092;2023-01-24T14:01:19;104351.00;;;4.80
12918;BMP180;6526;54.312;13.092;2023-01-24T14:03:58;104356.00;;;4.90
12918;BMP180;6526;54.312;13.092;2023-01-24T14:06:25;104363.00;;;4.80
12918;BMP180;6526;54.312;13.092;2023-01-24T14:09:00;104356.00;;;4.80
12918;BMP180;6526;54.312;13.092;2023-01-24T14:11:35;104364.00;;;4.70
12918;BMP180;6526;54.312;13.092;2023-01-24T14:14:29;104386.00;;;4.60
12918;BMP180;6526;54.312;13.092;2023-01-24T14:16:58;104372.00;;;4.60
12918;BMP180;6526;54.312;13.092;2023-01-24T14:19:31;104370.00;;;4.50
12918;BMP180;6526;54.312;13.092;2023-01-24T14:27:18;104368.00;;;4.70
12918;BMP180;6526;54.312;13.092;2023-01-24T14:30:00;104363.00;;;4.70
12918;BMP180;6526;54.312;13.092;2023-01-24T14:35:32;104370.00;;;4.40
12918;BMP180;6526;54.312;13.092;2023-01-24T14:38:15;104374.00;;;4.30
12918;BMP180;6526;54.312;13.092;2023-01-24T14:40:42;104369.00;;;4.50
12918;BMP180;6526;54.312;13.092;2023-01-24T14:43:10;104361.00;;;4.60
12918;BMP180;6526;54.312;13.092;2023-01-24T14:45:37;104378.00;;;4.30
12918;BMP180;6526;54.312;13.092;2023-01-24T14:48:09;104361.00;;;4.50
12918;BMP180;6526;54.312;13.092;2023-01-24T14:50:37;104369.00;;;4.50
12918;BMP180;6526;54.312;13.092;2023-01-24T14:53:26;104357.00;;;4.40
12918;BMP180;6526;54.312;13.092;2023-01-24T14:55:54;104363.00;;;4.40
12918;BMP180;6526;54.312;13.092;2023-01-24T14:58:28;104352.00;;;4.50
12918;BMP180;6526;54.312;13.092;2023-01-24T15:00:57;104347.00;;;4.40
12918;BMP180;6526;54.312;13.092;2023-01-24T15:03:30;104339.00;;;4.40
12918;BMP180;6526;54.312;13.092;2023-01-24T15:06:04;104339.00;;;4.30
12918;BMP180;6526;54.312;13.092;2023-01-24T15:08:31;104340.00;;;4.30
12918;BMP180;6526;54.312;13.092;2023-01-24T15:11:07;104340.00;;;4.30
12918;BMP180;6526;54.312;13.092;2023-01-24T15:13:45;104341.00;;;4.40
12918;BMP180;6526;54.312;13.092;2023-01-24T15:16:23;104324.00;;;4.30
12918;BMP180;6526;54.312;13.092;2023-01-24T15:18:54;104331.00;;;4.20
12918;BMP180;6526;54.312;13.092;2023-01-24T15:21:32;104328.00;;;4.10
12918;BMP180;6526;54.312;13.092;2023-01-24T15:23:59;104328.00;;;4.00
12918;BMP180;6526;54.312;13.092;2023-01-24T15:28:56;104339.00;;;4.10
12918;BMP180;6526;54.312;13.092;2023-01-24T15:31:31;104337.00;;;4.20
12918;BMP180;6526;54.312;13.092;2023-01-24T15:33:59;104336.00;;;4.20
12918;BMP180;6526;54.312;13.092;2023-01-24T15:36:31;104348.00;;;4.30
12918;BMP180;6526;54.312;13.092;2023-01-24T15:38:59;104339.00;;;4.30
12918;BMP180;6526;54.312;13.092;2023-01-24T15:41:26;104339.00;;;4.30
12918;BMP180;6526;54.312;13.092;2023-01-24T15:44:13;104346.00;;;4.40
12918;BMP180;6526;54.312;13.092;2023-01-24T15:46:42;104350.00;;;4.40
12918;BMP180;6526;54.312;13.092;2023-01-24T15:54:35;104350.00;;;4.40
12918;BMP180;6526;54.312;13.092;2023-01-24T15:57:03;104351.00;;;4.30
12918;BMP180;6526;54.312;13.092;2023-01-24T15:59:30;104347.00;;;4.30
12918;BMP180;6526;54.312;13.092;2023-01-24T16:02:00;104354.00;;;4.40
12918;BMP180;6526;54.312;13.092;2023-01-24T16:04:26;104351.00;;;4.40
12918;BMP180;6526;54.312;13.092;2023-01-24T16:06:52;104349.00;;;4.30
12918;BMP180;6526;54.312;13.092;2023-01-24T16:09:18;104343.00;;;4.20
12918;BMP180;6526;54.312;13.092;2023-01-24T16:11:46;104347.00;;;4.40
12918;BMP180;6526;54.312;13.092;2023-01-24T16:14:22;104346.00;;;4.30
12918;BMP180;6526;54.312;13.092;2023-01-24T16:16:51;104346.00;;;4.10
12918;BMP180;6526;54.312;13.092;2023-01-24T16:19:20;104341.00;;;4.10
12918;BMP180;6526;54.312;13.092;2023-01-24T16:21:47;104347.00;;;4.20